Amana, IA

5:34 AM CDT on August 27, 2014 (GMT -0500)
The Eastern Iowa Airport | Change Station
CLOSE
Current Station
Airport
Location: Cedar Rapids,
Elevation: 866 ft
Nearby Weather Stations

Elev 866 ft 41.88 °N, 91.71 °W | Updated 42 minutes ago

Light Rain
Light Rain
66 °F
Feels Like 66 °F
N
8
Wind Variable Wind from NE

Today
High -- | Low -- °F
--% Chance of Precip.
Yesterday
High -- | Low -- °F
Precip. -- in
6:28 AM 7:49 PM
Waxing Crescent, 3% visible
Pressure 30.12 in
Visibility 10.0 miles
Clouds Few 7000 ft
Mostly Cloudy 11000 ft
Dew Point 63 °F
Humidity 90%
Rainfall 0.04 in
Snow Depth Not available.
UV 0 out of 12
Pollen 7.20 out of 12
Air Quality Not available.
Flu Activity Not available.
METAR KCID 270952Z 04007KT 10SM -RA FEW070 BKN110 19/17 A3013 RMK AO2 RAE03B33 SLP197 P0001 T01890172

More Conditions Fewer Conditions

Pressure 30.12 in
Visibility 10.0 miles
Clouds Few 7000 ft
Mostly Cloudy 11000 ft
Dew Point 63 °F
Humidity 90%
Rainfall 0.04 in
Snow Depth Not available.
UV 0 out of 12
Pollen 7.20 out of 12
Air Quality Not available.
Flu Activity Not available.
METAR KCID 270952Z 04007KT 10SM -RA FEW070 BKN110 19/17 A3013 RMK AO2 RAE03B33 SLP197 P0001 T01890172

More Conditions Fewer Conditions

10-Day Weather Forecast

Almanac

Astronomy

Aug. 27, 2014 Rise Set
Actual Time 6:28 AM CDT 7:49 PM CDT
Civil Twilight 5:59 AM CDT 8:17 PM CDT
Nautical Twilight 5:24 AM CDT 8:52 PM CDT
Astronomical Twilight 4:47 AM CDT 9:29 PM CDT
Moon 8:26 AM CDT 8:38 PM CDT
Length of Visible Light 14h 18m
Length of Day
13h 20m
Tomorrow will be 2m 40s shorter.
Waxing Crescent, 3% of the Moon is Illuminated
Today
Waxing Crescent
Sep 2
First Quarter
Sep 8
Full
Sep 15
Last Quarter
Sep 24
New

Today's Extremes

State Highs State Lows

Community

WunderPhotos

Upload Photos

1,747,661 photos uploaded!

Nearby

Snow Depth

Station Depth Elevation
No new snow has been reported.

Earthquake Activity

City Distance Mag. Time & Date
No recent earthquake activity has been reported nearby.
Minimum magnitude displayed is 2.5.

Coastal Water Temperatures

Place Temperature
No Stations Reporting

Nearby Weather Stations